Time;durP1;ratioP1;P1;durP2;ratioP2;P2;SDS_P1;SDS_P2;PMS_P1;PMS_P2;Temp;Humidity;BMP_temperature;BMP_pressure;BME280_temperature;BME280_humidity;BME280_pressure;Samples;Min_cycle;Max_cycle;Signal;HPM_P1;HPM_P2
2022/07/23 00:00:05;;;;;;;;;;;22.40;66.10;;;;;;2005389;28;19905;-72
2022/07/23 00:01:04;;;;;;;;;;;22.40;66.10;;;;;;2005616;28;19905;-72
2022/07/23 00:02:02;;;;;;;;;;;22.40;66.10;;;;;;2005316;28;19992;-73
2022/07/23 00:03:01;;;;;;;;;;;22.40;66.00;;;;;;2005371;28;19912;-74
2022/07/23 00:03:59;;;;;;;;;;;22.40;66.10;;;;;;2005340;28;19905;-72
2022/07/23 00:04:58;;;;;;;;;;;22.40;66.10;;;;;;2005727;28;19999;-72
2022/07/23 00:05:56;;;;;;;;;;;22.40;66.20;;;;;;2005399;28;19905;-73
2022/07/23 00:06:55;;;;;;;;;;;22.40;66.20;;;;;;2005306;28;19913;-73
2022/07/23 00:07:53;;;;;;;;;;;22.40;66.20;;;;;;2005355;28;19905;-74
2022/07/23 00:08:52;;;;;;;;;;;22.40;66.20;;;;;;2005320;28;20047;-73
2022/07/23 00:09:50;;;;;;;;;;;22.40;66.10;;;;;;1996866;28;19910;-72
2022/07/23 00:10:49;;;;;;;;;;;22.40;66.20;;;;;;1996942;28;20270;-73
2022/07/23 00:11:47;;;;;;;;;;;22.40;66.20;;;;;;2004714;28;19905;-73
2022/07/23 00:12:46;;;;;;;;;;;22.40;66.20;;;;;;1996868;28;19917;-73
2022/07/23 00:13:45;;;;;;;;;;;22.40;66.20;;;;;;1996881;28;19906;-73
2022/07/23 00:14:43;;;;;;;;;;;22.40;66.20;;;;;;2004883;28;20264;-73
2022/07/23 00:15:41;;;;;;;;;;;22.40;66.20;;;;;;2005243;28;20341;-72
2022/07/23 00:16:40;;;;;;;;;;;22.40;66.20;;;;;;2005156;28;20221;-72
2022/07/23 00:17:38;;;;;;;;;;;22.40;66.30;;;;;;1996746;28;19997;-74
2022/07/23 00:18:37;;;;;;;;;;;22.40;66.20;;;;;;1996973;28;20008;-72
2022/07/23 00:19:35;;;;;;;;;;;22.30;66.20;;;;;;2004700;28;19913;-73
2022/07/23 00:20:34;;;;;;;;;;;22.30;66.10;;;;;;2005220;28;19998;-72
2022/07/23 00:21:34;;;;;;;;;;;22.30;66.20;;;;;;2005203;28;19905;-72
2022/07/23 00:22:32;;;;;;;;;;;22.30;66.20;;;;;;2005211;28;19909;-72
2022/07/23 00:23:31;;;;;;;;;;;22.40;66.40;;;;;;1996703;28;19937;-72
2022/07/23 00:24:29;;;;;;;;;;;22.40;66.40;;;;;;1996906;28;19912;-73
2022/07/23 00:25:28;;;;;;;;;;;22.40;66.40;;;;;;2004660;28;19909;-73
2022/07/23 00:26:26;;;;;;;;;;;22.30;66.30;;;;;;2005158;28;19906;-73
2022/07/23 00:27:25;;;;;;;;;;;22.30;66.40;;;;;;2004926;28;19917;-75
2022/07/23 00:28:23;;;;;;;;;;;22.40;66.60;;;;;;2005118;28;20249;-73
2022/07/23 00:29:22;;;;;;;;;;;22.40;67.00;;;;;;2005130;28;20371;-73
2022/07/23 00:30:20;;;;;;;;;;;;;;;;;;2005096;28;20311;-72
2022/07/23 00:31:19;;;;;;;;;;;22.40;65.40;;;;;;2005202;28;19916;-73
2022/07/23 00:32:17;;;;;;;;;;;22.30;66.00;;;;;;1996606;28;19959;-74
2022/07/23 00:33:16;;;;;;;;;;;22.30;66.00;;;;;;1996689;28;19936;-71
2022/07/23 00:34:14;;;;;;;;;;;22.40;66.10;;;;;;2004498;28;19912;-73
2022/07/23 00:35:13;;;;;;;;;;;22.30;66.00;;;;;;2005121;28;20233;-74
2022/07/23 00:36:12;;;;;;;;;;;22.30;66.00;;;;;;2005138;28;19905;-73
2022/07/23 00:37:10;;;;;;;;;;;22.30;66.00;;;;;;2005075;28;20363;-73
2022/07/23 00:38:09;;;;;;;;;;;22.30;66.00;;;;;;2005054;28;19909;-72
2022/07/23 00:39:07;;;;;;;;;;;22.30;66.00;;;;;;2005014;28;19905;-72
2022/07/23 00:40:06;;;;;;;;;;;22.30;65.90;;;;;;2005038;28;19955;-72
2022/07/23 00:41:05;;;;;;;;;;;22.30;66.00;;;;;;2004966;28;19933;-73
2022/07/23 00:42:03;;;;;;;;;;;22.30;66.00;;;;;;2005137;28;20371;-74
2022/07/23 00:43:02;;;;;;;;;;;22.30;66.00;;;;;;2005351;28;19929;-73
2022/07/23 00:44:14;;;;;;;;;;;22.30;66.00;;;;;;2004946;28;19959;-73
2022/07/23 00:45:12;;;;;;;;;;;22.30;66.10;;;;;;2005131;28;19951;-73
2022/07/23 00:46:11;;;;;;;;;;;22.30;66.10;;;;;;2005155;28;19912;-73
2022/07/23 00:47:12;;;;;;;;;;;22.30;66.00;;;;;;2004981;28;19959;-73
2022/07/23 00:48:11;;;;;;;;;;;22.30;66.00;;;;;;2005119;28;19988;-72
2022/07/23 00:49:10;;;;;;;;;;;22.30;66.00;;;;;;2005014;28;19905;-72
2022/07/23 00:50:09;;;;;;;;;;;22.30;66.00;;;;;;2005047;28;20064;-72
2022/07/23 00:51:07;;;;;;;;;;;22.30;66.00;;;;;;2005061;28;20003;-72
2022/07/23 00:52:06;;;;;;;;;;;22.30;66.00;;;;;;2005009;28;19912;-72
2022/07/23 00:53:05;;;;;;;;;;;22.30;66.00;;;;;;2005031;28;20000;-73
2022/07/23 00:54:03;;;;;;;;;;;22.30;66.00;;;;;;2004944;28;20264;-73
2022/07/23 00:55:02;;;;;;;;;;;22.30;65.90;;;;;;1996437;28;19913;-72
2022/07/23 00:56:01;;;;;;;;;;;22.30;66.00;;;;;;1996632;28;20312;-72
2022/07/23 00:57:00;;;;;;;;;;;22.30;66.00;;;;;;2004562;28;19975;-73
2022/07/23 00:57:58;;;;;;;;;;;22.30;65.90;;;;;;2004963;28;19971;-72
2022/07/23 00:58:57;;;;;;;;;;;22.30;65.90;;;;;;2004971;28;20096;-72
2022/07/23 00:59:57;;;;;;;;;;;22.30;66.00;;;;;;2005035;28;20345;-72
2022/07/23 01:00:56;;;;;;;;;;;22.30;66.00;;;;;;2004950;28;19944;-73
2022/07/23 01:01:54;;;;;;;;;;;22.30;66.70;;;;;;2004993;28;19931;-72
2022/07/23 01:02:53;;;;;;;;;;;22.30;66.00;;;;;;2004884;28;19996;-74
2022/07/23 01:03:51;;;;;;;;;;;22.30;66.00;;;;;;2004904;28;19912;-74
2022/07/23 01:04:50;;;;;;;;;;;22.30;66.00;;;;;;2005017;28;20442;-72
2022/07/23 01:05:48;;;;;;;;;;;22.30;66.10;;;;;;2005044;28;19987;-73
2022/07/23 01:06:47;;;;;;;;;;;22.30;66.10;;;;;;2004995;28;19906;-72
2022/07/23 01:07:46;;;;;;;;;;;22.30;66.10;;;;;;2004957;28;20007;-72
2022/07/23 01:08:44;;;;;;;;;;;22.30;66.00;;;;;;2004912;28;20210;-72
2022/07/23 01:09:45;;;;;;;;;;;22.30;66.00;;;;;;2004830;28;19959;-73
2022/07/23 01:10:43;;;;;;;;;;;22.30;66.00;;;;;;2004883;28;19905;-72
2022/07/23 01:11:42;;;;;;;;;;;22.30;66.00;;;;;;2005119;28;20019;-73
2022/07/23 01:12:41;;;;;;;;;;;22.30;66.00;;;;;;2005123;28;19967;-73
2022/07/23 01:13:43;;;;;;;;;;;22.30;66.10;;;;;;2005009;28;20249;-72
2022/07/23 01:14:41;;;;;;;;;;;22.30;66.00;;;;;;2004975;28;19905;-72
2022/07/23 01:15:39;;;;;;;;;;;22.30;66.00;;;;;;2004920;28;19950;-73
2022/07/23 01:16:38;;;;;;;;;;;22.30;66.10;;;;;;2004855;28;19916;-71
2022/07/23 01:17:37;;;;;;;;;;;22.30;66.10;;;;;;2004845;28;19911;-72
2022/07/23 01:18:35;;;;;;;;;;;22.30;66.80;;;;;;2004911;28;20000;-74
2022/07/23 01:19:34;;;;;;;;;;;22.30;66.10;;;;;;2004966;28;20003;-72
2022/07/23 01:20:32;;;;;;;;;;;22.30;66.10;;;;;;2004986;28;19906;-72
2022/07/23 01:21:31;;;;;;;;;;;22.30;66.10;;;;;;2004912;28;19945;-71
2022/07/23 01:22:29;;;;;;;;;;;22.30;66.00;;;;;;2004899;28;19917;-74
2022/07/23 01:23:28;;;;;;;;;;;22.30;66.00;;;;;;2004853;28;19906;-73
2022/07/23 01:24:27;;;;;;;;;;;22.20;66.00;;;;;;2004993;28;19941;-72
2022/07/23 01:25:25;;;;;;;;;;;22.30;66.00;;;;;;2004881;28;20016;-72
2022/07/23 01:26:24;;;;;;;;;;;22.30;66.00;;;;;;2004930;28;19909;-72
2022/07/23 01:27:22;;;;;;;;;;;22.30;66.00;;;;;;2004692;28;19988;-73
2022/07/23 01:28:21;;;;;;;;;;;22.20;66.00;;;;;;2004813;28;20020;-73
2022/07/23 01:29:20;;;;;;;;;;;22.30;66.10;;;;;;2004857;28;20356;-72
2022/07/23 01:30:19;;;;;;;;;;;22.30;66.10;;;;;;2004967;28;20276;-73
2022/07/23 01:31:19;;;;;;;;;;;22.30;66.10;;;;;;2004814;28;19905;-72
2022/07/23 01:32:17;;;;;;;;;;;22.30;66.10;;;;;;2004928;28;19992;-72
2022/07/23 01:33:15;;;;;;;;;;;22.20;66.00;;;;;;1996391;28;19906;-72
2022/07/23 01:34:14;;;;;;;;;;;22.30;66.80;;;;;;1996460;28;19905;-73
2022/07/23 01:35:12;;;;;;;;;;;22.30;66.10;;;;;;2004321;28;20292;-73
2022/07/23 01:36:11;;;;;;;;;;;22.30;66.10;;;;;;2004833;28;19905;-73
2022/07/23 01:37:09;;;;;;;;;;;22.30;66.10;;;;;;2004661;28;19911;-73
2022/07/23 01:38:08;;;;;;;;;;;22.20;66.00;;;;;;1996387;28;20020;-73
2022/07/23 01:39:07;;;;;;;;;;;22.30;66.10;;;;;;1996422;28;19906;-72
2022/07/23 01:40:06;;;;;;;;;;;22.20;66.00;;;;;;2004277;28;20390;-72
2022/07/23 01:41:04;;;;;;;;;;;22.20;66.10;;;;;;2004725;28;19905;-73
2022/07/23 01:42:03;;;;;;;;;;;22.20;66.10;;;;;;2004961;28;19952;-73
2022/07/23 01:43:01;;;;;;;;;;;22.20;66.00;;;;;;2004835;28;19912;-73
2022/07/23 01:44:00;;;;;;;;;;;22.20;66.00;;;;;;2004763;28;19906;-73
2022/07/23 01:44:58;;;;;;;;;;;22.20;66.00;;;;;;2004840;28;20365;-72
2022/07/23 01:45:57;;;;;;;;;;;22.20;66.10;;;;;;2004814;28;19984;-74
2022/07/23 01:46:56;;;;;;;;;;;22.20;66.00;;;;;;2004654;28;19913;-73
2022/07/23 01:47:54;;;;;;;;;;;22.20;66.00;;;;;;2004856;28;19905;-73
2022/07/23 01:48:53;;;;;;;;;;;22.20;65.90;;;;;;2004858;28;19906;-73
2022/07/23 01:49:51;;;;;;;;;;;22.20;66.00;;;;;;2004898;28;20319;-72
2022/07/23 01:50:50;;;;;;;;;;;22.20;66.00;;;;;;2004770;28;20378;-73
2022/07/23 01:52:00;;;;;;;;;;;22.20;66.10;;;;;;2004854;28;19925;-74
2022/07/23 01:52:59;;;;;;;;;;;22.20;66.10;;;;;;2004885;28;20349;-72
2022/07/23 01:53:57;;;;;;;;;;;22.20;66.10;;;;;;1996306;28;19928;-72
2022/07/23 01:54:56;;;;;;;;;;;22.20;66.10;;;;;;1996309;28;20333;-72
2022/07/23 01:55:54;;;;;;;;;;;22.20;66.10;;;;;;2004384;28;19906;-73
2022/07/23 01:56:52;;;;;;;;;;;22.20;66.10;;;;;;2004780;28;19944;-71
2022/07/23 01:57:51;;;;;;;;;;;22.20;66.10;;;;;;2004463;28;19909;-72
2022/07/23 01:58:50;;;;;;;;;;;22.20;66.10;;;;;;2004209;28;19905;-72
2022/07/23 01:59:48;;;;;;;;;;;22.20;66.10;;;;;;2004833;28;20365;-73
2022/07/23 02:00:47;;;;;;;;;;;22.20;66.10;;;;;;2004521;28;19920;-73
2022/07/23 02:01:45;;;;;;;;;;;22.20;66.10;;;;;;2004651;28;19960;-72
2022/07/23 02:02:44;;;;;;;;;;;22.20;66.10;;;;;;2004911;28;20261;-71
2022/07/23 02:03:42;;;;;;;;;;;22.20;66.10;;;;;;1996705;28;19958;-73
2022/07/23 02:04:41;;;;;;;;;;;22.20;66.10;;;;;;1996923;28;20218;-73
2022/07/23 02:05:39;;;;;;;;;;;22.20;66.10;;;;;;2006015;28;20055;-70
2022/07/23 02:06:38;;;;;;;;;;;22.20;66.10;;;;;;2008396;28;19905;-73
2022/07/23 02:07:36;;;;;;;;;;;22.20;66.10;;;;;;2008374;28;19953;-72
2022/07/23 02:08:35;;;;;;;;;;;22.20;66.20;;;;;;2008669;28;19912;-72
2022/07/23 02:09:34;;;;;;;;;;;22.20;66.20;;;;;;2006203;28;19905;-72
2022/07/23 02:10:34;;;;;;;;;;;22.20;66.20;;;;;;2005105;28;19905;-72
2022/07/23 02:11:33;;;;;;;;;;;22.20;66.20;;;;;;2004834;28;20111;-71
2022/07/23 02:12:31;;;;;;;;;;;22.20;66.20;;;;;;2004819;28;19924;-72
2022/07/23 02:13:29;;;;;;;;;;;22.20;66.10;;;;;;2004714;28;20272;-72
2022/07/23 02:14:28;;;;;;;;;;;22.20;66.10;;;;;;2004656;28;20340;-72
2022/07/23 02:15:28;;;;;;;;;;;22.20;66.20;;;;;;2004751;28;19960;-73
2022/07/23 02:16:27;;;;;;;;;;;22.20;66.20;;;;;;2004674;28;20100;-71
2022/07/23 02:17:25;;;;;;;;;;;22.20;66.20;;;;;;2004577;28;20358;-72
2022/07/23 02:18:24;;;;;;;;;;;22.20;66.20;;;;;;2004862;28;19919;-72
2022/07/23 02:19:22;;;;;;;;;;;22.20;66.10;;;;;;1996254;28;19953;-72
2022/07/23 02:20:21;;;;;;;;;;;22.20;66.10;;;;;;1996333;28;19912;-72
2022/07/23 02:21:19;;;;;;;;;;;22.20;66.10;;;;;;2004566;28;19906;-72
2022/07/23 02:22:18;;;;;;;;;;;22.20;66.10;;;;;;2006119;28;20356;-73
2022/07/23 02:23:16;;;;;;;;;;;22.20;66.10;;;;;;2006134;28;19905;-73
2022/07/23 02:24:15;;;;;;;;;;;22.20;66.00;;;;;;2006092;28;20315;-72
2022/07/23 02:25:14;;;;;;;;;;;22.20;66.00;;;;;;2006136;28;20268;-73
2022/07/23 02:26:12;;;;;;;;;;;22.20;66.10;;;;;;2006063;28;20384;-73
2022/07/23 02:27:11;;;;;;;;;;;22.20;66.10;;;;;;1997354;28;20008;-73
2022/07/23 02:28:11;;;;;;;;;;;22.20;66.10;;;;;;1989900;28;19957;-71
2022/07/23 02:29:09;;;;;;;;;;;22.20;66.10;;;;;;1997247;28;20336;-72
2022/07/23 02:30:08;;;;;;;;;;;22.20;66.00;;;;;;2005862;28;20243;-72
2022/07/23 02:31:06;;;;;;;;;;;22.20;66.10;;;;;;2006128;28;20379;-72
2022/07/23 02:32:05;;;;;;;;;;;22.20;66.10;;;;;;1998704;28;19906;-71
2022/07/23 02:33:03;;;;;;;;;;;22.20;66.10;;;;;;2001033;28;19973;-72
2022/07/23 02:34:02;;;;;;;;;;;22.20;66.00;;;;;;2009236;28;19905;-72
2022/07/23 02:35:01;;;;;;;;;;;22.20;66.10;;;;;;2010390;28;19920;-73
2022/07/23 02:36:00;;;;;;;;;;;22.20;66.00;;;;;;2007463;28;19910;-72
2022/07/23 02:36:58;;;;;;;;;;;22.20;66.00;;;;;;2007192;28;19905;-72
2022/07/23 02:37:57;;;;;;;;;;;22.20;66.10;;;;;;2007456;28;19912;-71
2022/07/23 02:38:55;;;;;;;;;;;22.20;66.10;;;;;;2006885;28;19906;-72
2022/07/23 02:39:54;;;;;;;;;;;22.20;66.20;;;;;;2006130;28;19905;-72
2022/07/23 02:40:52;;;;;;;;;;;22.20;66.10;;;;;;2005955;28;19924;-73
2022/07/23 02:41:51;;;;;;;;;;;22.20;66.10;;;;;;2006006;28;19959;-72
2022/07/23 02:42:49;;;;;;;;;;;22.20;66.20;;;;;;2005884;28;19909;-72
2022/07/23 02:43:48;;;;;;;;;;;22.20;66.10;;;;;;2005993;28;19906;-72
2022/07/23 02:44:46;;;;;;;;;;;22.20;66.10;;;;;;2005892;28;19905;-73
2022/07/23 02:45:45;;;;;;;;;;;22.20;66.20;;;;;;2005967;28;20279;-74
2022/07/23 02:46:43;;;;;;;;;;;22.20;66.20;;;;;;2005977;28;20340;-73
2022/07/23 02:47:42;;;;;;;;;;;22.20;66.20;;;;;;1997470;28;19997;-72
2022/07/23 02:48:40;;;;;;;;;;;22.10;66.10;;;;;;1997653;28;19952;-72
2022/07/23 02:49:39;;;;;;;;;;;22.10;66.20;;;;;;2005325;28;19910;-74
2022/07/23 02:50:37;;;;;;;;;;;22.10;66.10;;;;;;2005889;28;19912;-73
2022/07/23 02:51:36;;;;;;;;;;;22.20;66.20;;;;;;2005871;28;19906;-72
2022/07/23 02:52:34;;;;;;;;;;;22.10;66.20;;;;;;2005912;28;19910;-73
2022/07/23 02:53:33;;;;;;;;;;;22.10;66.30;;;;;;2005796;28;19906;-73
2022/07/23 02:54:31;;;;;;;;;;;22.10;66.30;;;;;;2005823;28;19905;-72
2022/07/23 02:55:31;;;;;;;;;;;22.10;66.40;;;;;;2005954;28;19906;-74
2022/07/23 02:56:29;;;;;;;;;;;22.10;66.50;;;;;;2005859;28;19917;-72
2022/07/23 02:57:27;;;;;;;;;;;22.20;66.80;;;;;;2006006;28;19952;-72
2022/07/23 02:58:26;;;;;;;;;;;22.10;67.10;;;;;;2005790;28;19912;-73
2022/07/23 02:59:24;;;;;;;;;;;22.20;67.50;;;;;;2005638;28;19936;-72
2022/07/23 03:00:23;;;;;;;;;;;22.20;67.60;;;;;;2005854;28;19940;-72
2022/07/23 03:01:21;;;;;;;;;;;22.10;67.70;;;;;;2005800;28;19959;-73
2022/07/23 03:02:20;;;;;;;;;;;22.20;68.00;;;;;;2005684;28;19905;-73
2022/07/23 03:03:19;;;;;;;;;;;22.10;67.90;;;;;;2005819;28;19992;-72
2022/07/23 03:04:17;;;;;;;;;;;22.10;68.30;;;;;;2005860;28;20327;-72
2022/07/23 03:05:15;;;;;;;;;;;22.10;68.40;;;;;;2005737;28;19906;-72
2022/07/23 03:06:14;;;;;;;;;;;22.20;68.60;;;;;;2005746;28;19905;-72
2022/07/23 03:07:12;;;;;;;;;;;22.10;68.50;;;;;;2005610;28;19905;-73
2022/07/23 03:08:11;;;;;;;;;;;22.20;68.70;;;;;;2005803;28;19985;-72
2022/07/23 03:09:09;;;;;;;;;;;22.10;68.60;;;;;;2005712;28;19906;-72
2022/07/23 03:10:08;;;;;;;;;;;22.20;68.80;;;;;;2005519;28;19906;-73
2022/07/23 03:11:10;;;;;;;;;;;22.20;69.00;;;;;;2005661;28;19906;-73
2022/07/23 03:12:09;;;;;;;;;;;22.10;69.00;;;;;;2005677;28;19960;-72
2022/07/23 03:13:07;;;;;;;;;;;22.10;69.10;;;;;;1997223;28;19914;-73
2022/07/23 03:14:07;;;;;;;;;;;22.10;69.20;;;;;;1997351;28;19906;-74
2022/07/23 03:15:06;;;;;;;;;;;22.10;69.40;;;;;;1996747;28;19953;-72
2022/07/23 03:16:04;;;;;;;;;;;22.10;69.60;;;;;;1997267;28;19906;-74
2022/07/23 03:17:03;;;;;;;;;;;22.10;69.90;;;;;;2005076;28;19905;-73
2022/07/23 03:18:02;;;;;;;;;;;;;;;;;;2005636;28;19905;-72
2022/07/23 03:19:00;;;;;;;;;;;22.10;65.40;;;;;;2005695;28;20080;-74
2022/07/23 03:19:59;;;;;;;;;;;22.10;66.00;;;;;;2005676;28;19909;-71
2022/07/23 03:20:57;;;;;;;;;;;22.10;66.00;;;;;;2005629;28;19905;-71
2022/07/23 03:21:56;;;;;;;;;;;22.10;66.00;;;;;;2005617;28;19971;-72
2022/07/23 03:22:54;;;;;;;;;;;22.10;66.00;;;;;;2005513;28;19910;-73
2022/07/23 03:23:53;;;;;;;;;;;22.10;66.10;;;;;;2005788;28;19913;-72
2022/07/23 03:24:54;;;;;;;;;;;22.10;66.00;;;;;;2005523;28;20349;-72
2022/07/23 03:25:52;;;;;;;;;;;22.10;66.00;;;;;;2005766;28;19981;-72
2022/07/23 03:26:51;;;;;;;;;;;22.10;66.00;;;;;;2005456;28;19905;-73
2022/07/23 03:27:49;;;;;;;;;;;22.10;66.10;;;;;;2005567;28;19913;-72
2022/07/23 03:28:48;;;;;;;;;;;22.10;66.10;;;;;;2005462;28;19985;-73
2022/07/23 03:29:46;;;;;;;;;;;22.10;66.10;;;;;;2005637;28;19905;-74
2022/07/23 03:30:49;;;;;;;;;;;22.10;66.00;;;;;;2005539;28;19906;-73
2022/07/23 03:31:47;;;;;;;;;;;22.10;66.10;;;;;;2005511;28;19905;-73
2022/07/23 03:32:45;;;;;;;;;;;22.10;66.10;;;;;;2005260;28;19905;-73
2022/07/23 03:33:45;;;;;;;;;;;22.10;66.10;;;;;;2005615;28;19985;-72
2022/07/23 03:34:45;;;;;;;;;;;22.10;66.10;;;;;;2005447;28;19975;-72
2022/07/23 03:35:44;;;;;;;;;;;22.10;66.00;;;;;;2005512;28;19905;-72
2022/07/23 03:36:42;;;;;;;;;;;22.10;66.10;;;;;;2005501;28;19913;-72
2022/07/23 03:37:41;;;;;;;;;;;22.10;66.00;;;;;;2005527;28;19905;-72
2022/07/23 03:38:39;;;;;;;;;;;22.10;66.10;;;;;;2005499;28;19971;-72
2022/07/23 03:39:38;;;;;;;;;;;22.10;66.10;;;;;;2005466;28;19905;-73
2022/07/23 03:40:36;;;;;;;;;;;22.10;66.00;;;;;;2005470;28;19960;-72
2022/07/23 03:41:35;;;;;;;;;;;22.10;66.00;;;;;;2005394;28;19905;-72
2022/07/23 03:42:34;;;;;;;;;;;22.10;66.10;;;;;;2005484;28;19909;-72
2022/07/23 03:43:33;;;;;;;;;;;22.10;66.10;;;;;;2005536;28;19905;-72
2022/07/23 03:44:31;;;;;;;;;;;22.10;66.00;;;;;;2005693;28;20348;-72
2022/07/23 03:45:30;;;;;;;;;;;22.10;66.00;;;;;;2005448;28;19945;-72
2022/07/23 03:46:29;;;;;;;;;;;22.10;66.10;;;;;;2005511;28;19909;-72
2022/07/23 03:47:27;;;;;;;;;;;22.10;66.70;;;;;;2005433;28;20000;-73
2022/07/23 03:48:25;;;;;;;;;;;22.10;66.10;;;;;;2005580;28;19909;-72
2022/07/23 03:49:24;;;;;;;;;;;22.10;66.10;;;;;;2005504;28;19914;-72
2022/07/23 03:50:22;;;;;;;;;;;22.10;66.10;;;;;;2005671;28;20320;-74
2022/07/23 03:51:21;;;;;;;;;;;22.10;66.10;;;;;;2005460;28;19925;-72
2022/07/23 03:52:19;;;;;;;;;;;22.10;66.10;;;;;;2005346;28;19940;-72
2022/07/23 03:53:18;;;;;;;;;;;22.10;66.10;;;;;;2005531;28;19905;-73
2022/07/23 03:54:16;;;;;;;;;;;22.10;66.00;;;;;;2005487;28;20059;-73
2022/07/23 03:55:15;;;;;;;;;;;22.10;66.00;;;;;;2005427;28;19905;-72
2022/07/23 03:56:14;;;;;;;;;;;22.10;66.00;;;;;;2005476;28;19905;-72
2022/07/23 03:57:12;;;;;;;;;;;22.10;66.00;;;;;;2005395;28;20020;-73
2022/07/23 03:58:11;;;;;;;;;;;22.10;66.10;;;;;;2005267;28;19928;-72
2022/07/23 03:59:09;;;;;;;;;;;22.10;66.00;;;;;;2005394;28;20328;-72
2022/07/23 04:00:09;;;;;;;;;;;22.10;66.10;;;;;;2005362;28;20314;-72
2022/07/23 04:01:07;;;;;;;;;;;22.10;66.10;;;;;;2005411;28;19909;-72
2022/07/23 04:02:06;;;;;;;;;;;22.10;66.10;;;;;;2005333;28;20364;-72
2022/07/23 04:03:04;;;;;;;;;;;22.10;66.10;;;;;;2005412;28;20369;-72
2022/07/23 04:04:03;;;;;;;;;;;22.10;66.00;;;;;;2005482;28;19981;-71
2022/07/23 04:05:02;;;;;;;;;;;22.10;66.00;;;;;;2005462;28;19992;-72
2022/07/23 04:06:00;;;;;;;;;;;22.10;66.10;;;;;;2005317;28;19968;-72
2022/07/23 04:06:59;;;;;;;;;;;22.10;66.20;;;;;;2005243;28;19910;-72
2022/07/23 04:07:57;;;;;;;;;;;22.10;66.10;;;;;;2005338;28;19905;-73
2022/07/23 04:08:56;;;;;;;;;;;22.10;66.00;;;;;;2005281;28;20335;-72
2022/07/23 04:09:54;;;;;;;;;;;22.00;66.00;;;;;;2005187;28;19937;-72
2022/07/23 04:10:53;;;;;;;;;;;22.00;66.00;;;;;;2005349;28;19956;-74
2022/07/23 04:11:51;;;;;;;;;;;22.10;66.10;;;;;;2005386;28;19909;-73
2022/07/23 04:12:50;;;;;;;;;;;22.10;66.10;;;;;;2005246;28;19906;-72
2022/07/23 04:13:48;;;;;;;;;;;22.10;66.10;;;;;;2005040;28;20276;-75
2022/07/23 04:14:47;;;;;;;;;;;22.10;66.00;;;;;;2005182;28;19955;-72
2022/07/23 04:15:45;;;;;;;;;;;22.10;66.10;;;;;;2005261;28;19912;-74
2022/07/23 04:16:44;;;;;;;;;;;22.10;66.10;;;;;;2005207;28;20344;-74
2022/07/23 04:17:43;;;;;;;;;;;22.10;66.20;;;;;;2005238;28;19906;-73
2022/07/23 04:18:42;;;;;;;;;;;22.10;66.10;;;;;;2005148;28;19905;-73
2022/07/23 04:19:41;;;;;;;;;;;22.10;66.20;;;;;;2005150;28;19905;-72
2022/07/23 04:20:39;;;;;;;;;;;22.10;66.10;;;;;;2005276;28;20379;-72
2022/07/23 04:21:38;;;;;;;;;;;22.10;66.20;;;;;;2005334;28;19905;-73
2022/07/23 04:22:36;;;;;;;;;;;22.10;66.20;;;;;;2005134;28;19909;-72
2022/07/23 04:23:35;;;;;;;;;;;22.10;66.10;;;;;;2005227;28;19909;-73
2022/07/23 04:24:34;;;;;;;;;;;22.10;66.20;;;;;;2005182;28;19909;-74
2022/07/23 04:25:32;;;;;;;;;;;22.10;66.20;;;;;;2005264;28;20347;-73
2022/07/23 04:26:31;;;;;;;;;;;22.10;66.20;;;;;;2005097;28;19992;-72
2022/07/23 04:27:29;;;;;;;;;;;22.10;66.20;;;;;;2004955;28;19922;-73
2022/07/23 04:28:28;;;;;;;;;;;22.10;66.20;;;;;;2005280;28;19905;-73
2022/07/23 04:29:26;;;;;;;;;;;22.10;66.20;;;;;;2005073;28;19928;-71
2022/07/23 04:30:25;;;;;;;;;;;22.10;66.20;;;;;;1996634;28;20343;-74
2022/07/23 04:31:23;;;;;;;;;;;22.10;66.20;;;;;;1996744;28;19910;-72
2022/07/23 04:32:21;;;;;;;;;;;22.00;66.10;;;;;;1996169;28;19910;-71
2022/07/23 04:33:20;;;;;;;;;;;22.00;66.10;;;;;;1996710;28;19912;-72
2022/07/23 04:34:19;;;;;;;;;;;22.00;66.10;;;;;;2004511;28;19959;-73
2022/07/23 04:35:17;;;;;;;;;;;22.00;66.10;;;;;;2005073;28;19989;-72
2022/07/23 04:36:16;;;;;;;;;;;22.10;66.20;;;;;;2004867;28;19966;-73
2022/07/23 04:37:14;;;;;;;;;;;22.10;66.20;;;;;;2004987;28;20356;-73
2022/07/23 04:38:12;;;;;;;;;;;22.00;66.10;;;;;;2004851;28;19911;-72
2022/07/23 04:39:11;;;;;;;;;;;22.00;66.10;;;;;;2005110;28;19944;-72
2022/07/23 04:40:10;;;;;;;;;;;22.00;66.10;;;;;;2005052;28;19937;-72
2022/07/23 04:41:09;;;;;;;;;;;22.10;66.20;;;;;;2005263;28;20286;-73
2022/07/23 04:42:07;;;;;;;;;;;22.00;66.10;;;;;;2005027;28;19912;-71
2022/07/23 04:43:06;;;;;;;;;;;22.00;66.10;;;;;;2004950;28;19967;-72
2022/07/23 04:44:04;;;;;;;;;;;22.00;66.10;;;;;;2004576;28;19916;-72
2022/07/23 04:45:03;;;;;;;;;;;22.00;66.10;;;;;;1996498;28;19906;-71
2022/07/23 04:46:02;;;;;;;;;;;22.10;66.30;;;;;;1996700;28;20282;-72
2022/07/23 04:47:00;;;;;;;;;;;22.10;66.20;;;;;;1996036;28;19929;-72
2022/07/23 04:47:59;;;;;;;;;;;22.10;66.20;;;;;;1996683;28;20280;-72
2022/07/23 04:48:57;;;;;;;;;;;22.00;66.10;;;;;;2004544;28;19905;-72
2022/07/23 04:49:56;;;;;;;;;;;22.00;66.10;;;;;;1996521;28;19959;-72
2022/07/23 04:50:54;;;;;;;;;;;22.10;66.20;;;;;;1996717;28;19905;-73
2022/07/23 04:51:53;;;;;;;;;;;22.00;66.10;;;;;;2004578;28;19905;-73
2022/07/23 04:52:51;;;;;;;;;;;22.10;66.20;;;;;;2005057;28;19951;-73
2022/07/23 04:53:50;;;;;;;;;;;22.00;66.10;;;;;;2004974;28;19912;-72
2022/07/23 04:54:48;;;;;;;;;;;22.00;66.10;;;;;;2005140;28;19948;-74
2022/07/23 04:55:47;;;;;;;;;;;22.00;66.10;;;;;;2005190;28;19905;-71
2022/07/23 04:56:45;;;;;;;;;;;22.00;66.20;;;;;;2005105;28;19906;-71
2022/07/23 04:57:44;;;;;;;;;;;22.00;66.20;;;;;;1996565;28;20380;-74
2022/07/23 04:58:42;;;;;;;;;;;22.00;66.10;;;;;;1996643;28;19905;-71
2022/07/23 04:59:41;;;;;;;;;;;22.00;66.10;;;;;;2003970;28;19905;-70
2022/07/23 05:00:39;;;;;;;;;;;22.00;66.20;;;;;;2005014;28;20406;-73
2022/07/23 05:01:38;;;;;;;;;;;22.00;66.20;;;;;;1996852;28;19949;-72
2022/07/23 05:02:36;;;;;;;;;;;22.00;66.20;;;;;;1997176;28;19932;-73
2022/07/23 05:03:35;;;;;;;;;;;22.00;66.20;;;;;;2004604;28;19906;-73
2022/07/23 05:04:33;;;;;;;;;;;22.00;66.20;;;;;;2005721;28;19909;-71
2022/07/23 05:05:32;;;;;;;;;;;22.00;66.10;;;;;;2007170;28;19963;-73
2022/07/23 05:06:30;;;;;;;;;;;22.00;66.20;;;;;;2007005;28;19961;-71
2022/07/23 05:07:29;;;;;;;;;;;22.00;66.20;;;;;;2006275;28;19909;-73
2022/07/23 05:08:27;;;;;;;;;;;22.00;66.20;;;;;;2005239;28;19906;-74
2022/07/23 05:09:26;;;;;;;;;;;22.00;66.20;;;;;;2005015;28;19906;-72
2022/07/23 05:10:24;;;;;;;;;;;22.00;66.20;;;;;;2004885;28;19909;-73
2022/07/23 05:11:23;;;;;;;;;;;22.00;66.20;;;;;;2004924;28;19909;-74
2022/07/23 05:12:21;;;;;;;;;;;22.00;66.20;;;;;;2004988;28;19912;-71
2022/07/23 05:13:20;;;;;;;;;;;22.00;66.20;;;;;;2004979;28;19906;-73
2022/07/23 05:14:18;;;;;;;;;;;22.00;66.20;;;;;;2004908;28;19909;-72
2022/07/23 05:15:17;;;;;;;;;;;22.00;66.10;;;;;;2004885;28;19945;-73
2022/07/23 05:16:15;;;;;;;;;;;22.00;66.10;;;;;;2004991;28;19968;-72
2022/07/23 05:17:14;;;;;;;;;;;22.00;66.10;;;;;;2004854;28;20379;-73
2022/07/23 05:18:12;;;;;;;;;;;22.00;66.10;;;;;;2004942;28;20349;-72
2022/07/23 05:19:11;;;;;;;;;;;22.00;66.20;;;;;;2004879;28;20276;-74
2022/07/23 05:20:10;;;;;;;;;;;22.00;66.20;;;;;;2004915;28;19905;-72
2022/07/23 05:21:08;;;;;;;;;;;22.00;66.10;;;;;;2007138;28;19909;-73
2022/07/23 05:22:07;;;;;;;;;;;22.00;66.10;;;;;;2008866;28;19964;-74
2022/07/23 05:23:06;;;;;;;;;;;22.00;66.10;;;;;;2009828;28;19933;-71
2022/07/23 05:24:05;;;;;;;;;;;22.00;66.10;;;;;;2009338;28;19905;-72
2022/07/23 05:25:04;;;;;;;;;;;22.00;66.10;;;;;;2006810;28;19912;-72
2022/07/23 05:26:03;;;;;;;;;;;22.00;66.10;;;;;;2005520;28;19948;-71
2022/07/23 05:27:01;;;;;;;;;;;22.00;66.20;;;;;;2005088;28;19913;-72
2022/07/23 05:28:00;;;;;;;;;;;22.00;66.20;;;;;;2005153;28;20276;-72
2022/07/23 05:28:58;;;;;;;;;;;22.00;66.20;;;;;;2005003;28;19906;-71
2022/07/23 05:29:57;;;;;;;;;;;22.00;66.20;;;;;;2004922;28;19912;-72
2022/07/23 05:30:55;;;;;;;;;;;22.00;66.20;;;;;;2005087;28;19905;-72
2022/07/23 05:31:54;;;;;;;;;;;22.00;66.20;;;;;;2004842;28;20253;-73
2022/07/23 05:32:52;;;;;;;;;;;22.00;66.20;;;;;;2005068;28;20000;-71
2022/07/23 05:33:51;;;;;;;;;;;22.00;66.20;;;;;;2004886;28;19905;-72
2022/07/23 05:34:49;;;;;;;;;;;22.00;66.20;;;;;;2004920;28;20384;-74
2022/07/23 05:35:48;;;;;;;;;;;22.00;66.10;;;;;;2004884;28;19920;-72
2022/07/23 05:36:46;;;;;;;;;;;22.00;66.10;;;;;;2004749;28;19950;-72
2022/07/23 05:37:45;;;;;;;;;;;22.00;66.10;;;;;;2004867;28;19905;-72
2022/07/23 05:38:43;;;;;;;;;;;22.00;66.20;;;;;;1996440;28;20349;-72
2022/07/23 05:39:42;;;;;;;;;;;22.00;66.10;;;;;;1996405;28;19906;-72
2022/07/23 05:40:40;;;;;;;;;;;22.00;66.20;;;;;;2004268;28;19906;-72
2022/07/23 05:41:39;;;;;;;;;;;22.00;66.20;;;;;;2004676;28;19909;-72